Flight Track Log - Related Links

Times and Time Zones

All times are in EDT time to prevent confusion due to time zone crossing. See the JBU1414 flight status page for this flight to view local times or setup timezone preferences in your user account.

Time Position Orientation Groundspeed Altitude Reporting Facility
EDT Latitude Longitude Course Direction KTS MPH feet Rate Location/Type
Tue 06:33:41 PM 37.6100 -122.3900 95° East 32 37  Level FlightAware ADS-B
Tue 06:34:05 PM 37.6110 -122.3890 38° Northeast 24 28 35 Level FlightAware ADS-B
Tue 06:34:39 PM 37.6120 -122.3850 72° East 28 32 38 Level FlightAware ADS-B
Tue 06:35:28 PM 37.6090 -122.3840 165° South 27 31 42 Level FlightAware ADS-B
Tue 06:35:58 PM 37.6080 -122.3850 218° Southwest 25 29 51 Level FlightAware ADS-B
Tue 06:36:26 PM 37.6050 -122.3860 195° South 25 29 58 Level FlightAware ADS-B
Tue 06:36:40 PM 37.6060 -122.3830 67° East 27 31 67 Level FlightAware ADS-B
Tue 06:37:06 PM 37.6050 -122.3800 113° Southeast 27 31 73 Level FlightAware ADS-B
Tue 06:37:56 PM 37.6060 -122.3810 322° Northwest 24 28 87 Level FlightAware ADS-B
Tue 06:38:12 PM 37.6070 -122.3810 360° North 26 30 136 Level FlightAware ADS-B
Tue 06:38:52 PM 37.6080 -122.3800 38° Northeast 47 54 167 Level FlightAware ADS-B
Tue 06:39:24 PM 37.6240 -122.3690 30° Northeast 166 191 200 955 Climbing FlightAware ADS-B
Tue 06:39:36 PM 37.6319 -122.3640 27° Northeast 163 188 700 2,222 Climbing FlightAware ADS-B
Tue 06:39:51 PM 37.6426 -122.3580 24° Northeast 169 194 1,200 1,742 Climbing FlightAware ADS-B
Tue 06:40:07 PM 37.6545 -122.3510 25° Northeast 188 216 1,600 1,371 Climbing FlightAware ADS-B
Tue 06:40:26 PM 37.6709 -122.3410 26° Northeast 213 245 2,000 1,105 Climbing FlightAware ADS-B
Tue 06:40:45 PM 37.6888 -122.3310 24° Northeast 225 259 2,300 1,412 Climbing FlightAware ADS-B
Tue 06:41:00 PM 37.7044 -122.3220 25° Northeast 243 280 2,800 1,773 Climbing FlightAware ADS-B
Tue 06:41:29 PM 37.7348 -122.3040 25° Northeast 252 290 3,600 1,846 Climbing FlightAware ADS-B
Tue 06:41:52 PM 37.7620 -122.2880 25° Northeast 280 322 4,400 2,348 Climbing FlightAware ADS-B
Tue 06:42:15 PM 37.7858 -122.2660 36° Northeast 284 327 5,400 2,667 Climbing FlightAware ADS-B
Tue 06:42:28 PM 37.7927 -122.2460 66° East 289 333 6,000 3,091 Climbing FlightAware ADS-B
Tue 06:42:48 PM 37.7995 -122.2140 75° East 283 326 7,100 2,909 Climbing FlightAware ADS-B
Tue 06:43:01 PM 37.8040 -122.1930 75° East 287 330 7,600 2,357 Climbing FlightAware ADS-B
Tue 06:43:16 PM 37.8098 -122.1680 74° East 291 335 8,200 2,323 Climbing FlightAware ADS-B
Tue 06:43:32 PM 37.8159 -122.1430 73° East 295 339 8,800 2,516 Climbing FlightAware ADS-B
Tue 06:43:47 PM 37.8219 -122.1180 73° East 295 339 9,500 2,267 Climbing FlightAware ADS-B
Tue 06:44:17 PM 37.8338 -122.0670 74° East 309 356 10,500 1,377 Climbing FlightAware ADS-B
Tue 06:44:48 PM 37.8468 -122.0110 74° East 342 394 10,900 885 Climbing FlightAware ADS-B
Tue 06:45:18 PM 37.8608 -121.9510 74° East 368 423 11,400 1,600 Climbing FlightAware ADS-B
Tue 06:45:48 PM 37.8754 -121.8880 74° East 374 430 12,500 2,164 Climbing FlightAware ADS-B
Tue 06:46:19 PM 37.8902 -121.8240 74° East 377 434 13,600 2,164 Climbing FlightAware ADS-B
Tue 06:46:49 PM 37.9049 -121.7590 74° East 378 435 14,700 2,100 Climbing FlightAware ADS-B
Tue 06:47:19 PM 37.9195 -121.6950 74° East 382 440 15,700 1,900 Climbing FlightAware ADS-B
Tue 06:47:49 PM 37.9344 -121.6300 74° East 388 447 16,600 1,773 Climbing FlightAware ADS-B
Tue 06:48:03 PM 37.9409 -121.6000 75° East 391 450 17,000 1,909 Climbing FlightAware ADS-B
Tue 06:48:33 PM 37.9517 -121.5330 78° East 395 455 18,000 1,800 Climbing FlightAware ADS-B
Tue 06:49:03 PM 37.9613 -121.4630 80° East 404 465 18,800 1,800 Climbing FlightAware ADS-B
Tue 06:49:33 PM 37.9717 -121.3920 79° East 405 466 19,800 1,770 Climbing FlightAware ADS-B
Tue 06:50:04 PM 37.9823 -121.3210 79° East 411 473 20,600 1,548 Climbing FlightAware ADS-B
Tue 06:50:35 PM 37.9935 -121.2470 79° East 414 476 21,400 1,429 Climbing FlightAware ADS-B
Tue 06:51:07 PM 38.0050 -121.1710 79° East 422 486 22,100 1,333 Climbing FlightAware ADS-B
Tue 06:51:47 PM 38.0198 -121.0710 79° East 424 488 23,000 1,211 Climbing FlightAware ADS-B
Tue 06:52:56 PM 38.0460 -120.8980 79° East 443 510 24,300 1,143 Climbing FlightAware ADS-B
Tue 06:53:32 PM 38.0590 -120.8080 80° East 448 516 25,000 1,725 Climbing FlightAware ADS-B
Tue 06:54:16 PM 38.0750 -120.6980 79° East 432 497 26,600 1,977 Climbing FlightAware ADS-B
Tue 06:55:00 PM 38.0910 -120.5870 80° East 428 493 27,900 1,674 Climbing FlightAware ADS-B
Tue 06:55:42 PM 38.1060 -120.4820 80° East 424 488 29,000 1,694 Climbing FlightAware ADS-B
Tue 06:56:25 PM 38.1210 -120.3800 79° East 413 475 30,300 1,350 Climbing FlightAware ADS-B
Tue 06:57:02 PM 38.1340 -120.2880 80° East 417 480 30,800 988 Climbing FlightAware ADS-B
Tue 06:57:50 PM 38.1500 -120.1760 80° East 416 479 31,700 1,091 Climbing FlightAware ADS-B
Tue 06:58:30 PM 38.1640 -120.0780 80° East 418 481 32,400 706 Climbing FlightAware ADS-B
Tue 06:59:15 PM 38.1791 -119.9680 80° East 418 481 32,700 400 Climbing FlightAware ADS-B
Tue 06:59:45 PM 38.1895 -119.8930 80° East 418 481 32,900 390 Climbing FlightAware ADS-B
Tue 07:00:32 PM 38.2060 -119.7750 80° East 450 518 33,200 651 Climbing FlightAware ADS-B
Tue 07:01:08 PM 38.2190 -119.6790 80° East 450 518 33,800 963 Climbing FlightAware ADS-B
Tue 07:01:53 PM 38.2340 -119.5670 80° East 449 517 34,500 847 Climbing FlightAware ADS-B
Tue 07:02:33 PM 38.2490 -119.4560 80° East 451 519 35,000 366 Climbing FlightAware ADS-B
Tue 07:03:15 PM 38.2640 -119.3480 80° East 449 517 35,000  Level FlightAware ADS-B
Tue 07:03:59 PM 38.2790 -119.2340 80° East 454 522 35,000  Level FlightAware ADS-B
Tue 07:04:40 PM 38.2930 -119.1270 81° East 456 525 35,000  Level FlightAware ADS-B
Tue 07:05:25 PM 38.3090 -119.0050 80° East 457 526 35,000  Level FlightAware ADS-B
Tue 07:05:59 PM 38.3210 -118.9160 80° East 460 529 35,000  Level FlightAware ADS-B
Tue 07:06:40 PM 38.3350 -118.8050 81° East 461 531 35,000  Level FlightAware ADS-B
Tue 07:07:18 PM 38.3470 -118.7160 80° East 461 531 35,000  Level FlightAware ADS-B
Tue 07:07:57 PM 38.3590 -118.6280 80° East 461 531 35,000  Level FlightAware ADS-B
Tue 07:08:38 PM 38.3750 -118.4940 81° East 454 522 35,000  Level FlightAware ADS-B
Tue 07:09:22 PM 38.3890 -118.3790 81° East 447 514 35,000  Level FlightAware ADS-B
Tue 07:09:54 PM 38.4000 -118.2940 81° East 444 511 35,000  Level FlightAware ADS-B
Tue 07:10:38 PM 38.4160 -118.1830 80° East 445 512 35,000  Level FlightAware ADS-B
Tue 07:11:18 PM 38.4300 -118.0770 80° East 446 513 35,000  Level FlightAware ADS-B
Tue 07:11:56 PM 38.4400 -117.9790 83° East 449 517 35,000  Level FlightAware ADS-B
Tue 07:12:45 PM 38.4590 -117.8650 78° East 450 518 35,000  Level FlightAware ADS-B
Tue 07:13:22 PM 38.4740 -117.7830 77° East 450 518 35,000  Level FlightAware ADS-B
Tue 07:14:14 PM 38.4940 -117.6690 77° East 450 518 35,000  Level FlightAware ADS-B
Tue 07:14:50 PM 38.5090 -117.5890 77° East 450 518 35,000  Level FlightAware ADS-B
Tue 07:15:38 PM 38.5280 -117.4830 77° East 450 518 35,000  Level FlightAware ADS-B
Tue 07:16:49 PM 38.5560 -117.3270 77° East 450 518 35,000  Level FlightAware ADS-B
Tue 07:17:38 PM 38.5760 -117.2190 77° East 450 518 35,000  Level FlightAware ADS-B
Tue 07:18:13 PM 38.5890 -117.1420 78° East 450 518 35,000  Level FlightAware ADS-B
Tue 07:19:02 PM 38.6090 -117.0340 77° East 450 518 35,000  Level FlightAware ADS-B
Tue 07:19:39 PM 38.6240 -116.9520 77° East 450 518 35,000  Level FlightAware ADS-B
Tue 07:20:27 PM 38.6430 -116.8460 77° East 450 518 35,000  Level FlightAware ADS-B
Tue 07:21:03 PM 38.6570 -116.7660 77° East 450 518 35,000  Level FlightAware ADS-B
Tue 07:21:51 PM 38.6760 -116.6600 77° East 450 518 35,000 1,538 Level FlightAware ADS-B
Tue 07:22:21 PM 38.4769 -116.3956 77° East 445 512 37,000 1,579 Climbing Salt Lake Center
Tue 07:23:07 PM 38.4619 -116.2711 99° East 444 511 37,000  Level Oakland Center
Tue 07:24:08 PM 38.4467 -116.1147 97° East 445 512 37,000  Level Oakland Center
Tue 07:25:26 PM 38.4225 -115.8967 98° East 444 511 37,000 43 Level Salt Lake Center
Tue 07:26:28 PM 38.4064 -115.7369 97° East 452 520 37,100 48 Climbing Salt Lake Center
Tue 07:27:30 PM 38.3875 -115.5772 99° East 455 524 37,100  Level Salt Lake Center
Tue 07:28:31 PM 38.3700 -115.4192 98° East 453 521 37,100 -49 Level Salt Lake Center
Tue 07:29:33 PM 38.3528 -115.2647 98° East 454 522 37,000 -48 Descending Salt Lake Center
Tue 07:30:35 PM 38.3353 -115.1081 98° East 452 520 37,000  Level Salt Lake Center
Tue 07:31:37 PM 38.3125 -114.9178 99° East 454 522 37,000 49 Level Salt Lake Center
Tue 07:32:38 PM 38.2944 -114.7594 98° East 454 522 37,100  Climbing Salt Lake Center
Tue 07:33:40 PM 38.2753 -114.6008 99° East 454 522 37,000 -48 Descending Salt Lake Center
Tue 07:34:42 PM 38.2556 -114.4436 99° East 452 520 37,000  Level Salt Lake Center
Tue 07:35:44 PM 38.2239 -114.2894 105° East 453 521 37,000  Level Salt Lake Center
Tue 07:36:46 PM 38.1831 -114.1372 109° East 455 524 37,000  Level Salt Lake Center
Tue 07:37:47 PM 38.1436 -113.9856 108° East 454 522 37,000  Level Salt Lake Center
Tue 07:38:49 PM 38.0961 -113.8044 108° East 453 521 37,000  Level Salt Lake Center
Tue 07:39:51 PM 38.0561 -113.6511 108° East 456 525 37,000  Level Salt Lake Center
Tue 07:40:53 PM 38.0147 -113.4986 109° East 458 527 37,000  Level Salt Lake Center
Tue 07:41:54 PM 37.9744 -113.3467 109° East 455 524 37,000  Level Salt Lake Center
Tue 07:42:56 PM 37.9331 -113.1942 109° East 457 526 37,000  Level Salt Lake Center
Tue 07:43:58 PM 37.8928 -113.0419 108° East 454 522 37,000  Level Salt Lake Center
Tue 07:45:00 PM 37.8531 -112.8900 108° East 452 520 37,000  Level Salt Lake Center
Tue 07:46:01 PM 37.8108 -112.7356 109° East 455 524 37,000  Level Salt Lake Center
Tue 07:47:03 PM 37.7678 -112.5822 110° East 456 525 37,000  Level Salt Lake Center
Tue 07:48:05 PM 37.7258 -112.4303 109° East 455 524 37,000  Level Salt Lake Center
Tue 07:49:07 PM 37.6694 -112.2514 112° Southeast 455 524 37,000  Level Salt Lake Center
Tue 07:54:28 PM 37.3250 -111.4930 112° Southeast 467 537 37,000  Level FlightAware ADS-B
Tue 07:55:10 PM 37.2790 -111.3910 120° Southeast 469 540 37,000  Level FlightAware ADS-B
Tue 07:55:56 PM 37.2290 -111.2810 120° Southeast 469 540 37,000 70 Level FlightAware ADS-B
Tue 07:56:36 PM 37.1860 -111.1870 120° Southeast 468 539 37,100 71 Climbing FlightAware ADS-B
Tue 07:57:20 PM 37.1390 -111.0860 120° Southeast 461 531 37,100 -70 Level FlightAware ADS-B
Tue 07:58:02 PM 37.0950 -110.9890 120° Southeast 459 528 37,000 -75 Descending FlightAware ADS-B
Tue 07:58:40 PM 37.0540 -110.9000 120° Southeast 458 527 37,000  Level FlightAware ADS-B
Tue 07:59:18 PM 37.0140 -110.8150 120° Southeast 463 533 37,000  Level FlightAware ADS-B
Tue 08:00:24 PM 36.9540 -110.6850 120° Southeast 463 533 37,000 57 Level FlightAware ADS-B
Tue 08:01:03 PM 36.9000 -110.5700 120° Southeast 467 537 37,100 78 Climbing FlightAware ADS-B
Tue 08:01:41 PM 36.8580 -110.4810 121° Southeast 466 536 37,100  Level FlightAware ADS-B
Tue 08:02:23 PM 36.8130 -110.3840 120° Southeast 463 533 37,100 -67 Level FlightAware ADS-B
Tue 08:03:11 PM 36.7620 -110.2750 120° Southeast 461 531 37,000 -62 Descending FlightAware ADS-B
Tue 08:04:00 PM 36.7120 -110.1700 121° Southeast 460 529 37,000  Level FlightAware ADS-B
Tue 08:04:35 PM 36.6810 -110.1020 120° Southeast 460 529 37,000  Level FlightAware ADS-B
Tue 08:05:25 PM 36.6360 -110.0040 120° Southeast 460 529 37,000  Level FlightAware ADS-B
Tue 08:06:01 PM 36.6030 -109.9340 120° Southeast 460 529 37,000  Level FlightAware ADS-B
Tue 08:06:47 PM 36.5610 -109.8440 120° Southeast 460 529 37,000  Level FlightAware ADS-B
Tue 08:07:24 PM 36.5280 -109.7720 120° Southeast 460 529 37,000  Level FlightAware ADS-B
Tue 08:08:13 PM 36.4840 -109.6770 120° Southeast 460 529 37,000  Level FlightAware ADS-B
Tue 08:09:02 PM 36.4390 -109.5810 120° Southeast 460 529 37,000  Level FlightAware ADS-B
Tue 08:09:39 PM 36.4060 -109.5090 120° Southeast 460 529 37,000  Level FlightAware ADS-B
Tue 08:10:23 PM 36.3660 -109.4240 120° Southeast 460 529 37,000  Level FlightAware ADS-B
Tue 08:11:01 PM 36.3320 -109.3500 120° Southeast 460 529 37,000  Level FlightAware ADS-B
Tue 08:11:34 PM 36.3020 -109.2850 120° Southeast 460 529 37,000  Level FlightAware ADS-B
Tue 08:12:24 PM 36.2570 -109.1880 120° Southeast 460 529 37,000  Level FlightAware ADS-B
Tue 08:13:00 PM 36.2240 -109.1180 120° Southeast 460 529 37,000  Level FlightAware ADS-B
Tue 08:15:08 PM 36.2140 -108.6050 91° East 440 506 37,000  Level FlightAware ADS-B
Tue 08:16:23 PM 36.2030 -108.4320 94° East 441 507 37,000  Level FlightAware ADS-B
Tue 08:16:58 PM 36.1990 -108.3570 94° East 441 507 37,000  Level FlightAware ADS-B
Tue 08:17:37 PM 36.1940 -108.2730 94° East 441 507 37,000  Level FlightAware ADS-B
Tue 08:18:25 PM 36.1880 -108.1700 94° East 441 507 37,000  Level FlightAware ADS-B
Tue 08:19:00 PM 36.1840 -108.0950 94° East 441 507 37,000  Level FlightAware ADS-B
Tue 08:19:48 PM 36.1780 -107.9920 94° East 441 507 37,000  Level FlightAware ADS-B
Tue 08:20:32 PM 36.1550 -107.7890 98° East 440 506 37,000  Level FlightAware ADS-B
Tue 08:21:16 PM 36.1480 -107.6790 94° East 440 506 37,000  Level FlightAware ADS-B
Tue 08:21:56 PM 36.1430 -107.5790 94° East 442 509 37,000  Level FlightAware ADS-B
Tue 08:22:38 PM 36.1380 -107.4780 93° East 445 512 37,000  Level FlightAware ADS-B
Tue 08:23:15 PM 36.1350 -107.3980 93° East 445 512 37,000  Level FlightAware ADS-B
Tue 08:24:02 PM 36.1190 -107.2590 98° East 454 522 37,000 66 Level FlightAware ADS-B
Tue 08:24:46 PM 36.0990 -107.1490 103° East 460 529 37,100 61 Climbing FlightAware ADS-B
Tue 08:25:40 PM 36.0310 -107.0310 125° Southeast 479 551 37,100  Level FlightAware ADS-B
Tue 08:26:20 PM 35.9720 -106.9520 133° Southeast 470 541 37,100 -77 Level FlightAware ADS-B
Tue 08:26:58 PM 35.9260 -106.8660 123° Southeast 470 541 37,000 -77 Descending FlightAware ADS-B
Tue 08:27:38 PM 35.8770 -106.7760 124° Southeast 471 542 37,000  Level FlightAware ADS-B
Tue 08:28:22 PM 35.8190 -106.6840 128° Southeast 470 541 37,000  Level FlightAware ADS-B
Tue 08:28:52 PM 35.7790 -106.6200 128° Southeast 473 544 37,000  Level FlightAware ADS-B
Tue 08:29:36 PM 35.7220 -106.5260 127° Southeast 476 548 37,000  Level FlightAware ADS-B
Tue 08:30:20 PM 35.6630 -106.4310 127° Southeast 479 551 37,000  Level FlightAware ADS-B
Tue 08:30:57 PM 35.6140 -106.3520 127° Southeast 478 550 37,000  Level FlightAware ADS-B
Tue 08:31:37 PM 35.5600 -106.2650 127° Southeast 476 548 37,000  Level FlightAware ADS-B
Tue 08:32:20 PM 35.5020 -106.1720 127° Southeast 475 547 37,000  Level FlightAware ADS-B
Tue 08:33:00 PM 35.4490 -106.0860 127° Southeast 478 550 37,000  Level FlightAware ADS-B
Tue 08:33:44 PM 35.3920 -105.9890 126° Southeast 481 554 37,000  Level FlightAware ADS-B
Tue 08:34:22 PM 35.3470 -105.9010 122° Southeast 485 558 37,000  Level FlightAware ADS-B
Tue 08:35:06 PM 35.2930 -105.7970 122° Southeast 489 563 37,000 68 Level FlightAware ADS-B
Tue 08:35:50 PM 35.2410 -105.6950 122° Southeast 489 563 37,100  Climbing FlightAware ADS-B
Tue 08:36:32 PM 35.1900 -105.5960 122° Southeast 489 563 37,000 -77 Descending FlightAware ADS-B
Tue 08:37:08 PM 35.1470 -105.5150 123° Southeast 489 563 37,000  Level FlightAware ADS-B
Tue 08:37:49 PM 35.1040 -105.4350 123° Southeast 491 565 37,000  Level FlightAware ADS-B
Tue 08:38:29 PM 35.0600 -105.3570 125° Southeast 491 565 37,000  Level FlightAware ADS-B
Tue 08:39:17 PM 35.0090 -105.2630 124° Southeast 491 565 37,000  Level FlightAware ADS-B
Tue 08:39:53 PM 34.9700 -105.1920 124° Southeast 491 565 37,000  Level FlightAware ADS-B
Tue 08:40:41 PM 34.9180 -105.0990 124° Southeast 491 565 37,000  Level FlightAware ADS-B
Tue 08:41:17 PM 34.8790 -105.0280 124° Southeast 491 565 37,000  Level FlightAware ADS-B
Tue 08:42:05 PM 34.8270 -104.9350 124° Southeast 491 565 37,000  Level FlightAware ADS-B
Tue 08:42:39 PM 34.7900 -104.8680 124° Southeast 491 565 37,000  Level FlightAware ADS-B
Tue 08:43:40 PM 34.7250 -104.7500 124° Southeast 491 565 37,000  Level FlightAware ADS-B
Tue 08:44:17 PM 34.6850 -104.6780 124° Southeast 491 565 37,000  Level FlightAware ADS-B
Tue 08:44:53 PM 34.6460 -104.6080 124° Southeast 491 565 37,000  Level FlightAware ADS-B
Tue 08:45:39 PM 34.5960 -104.5180 124° Southeast 491 565 37,000  Level FlightAware ADS-B
Tue 08:46:15 PM 34.5570 -104.4480 124° Southeast 491 565 37,000  Level FlightAware ADS-B
Tue 08:47:03 PM 34.5050 -104.3550 124° Southeast 491 565 37,000  Level FlightAware ADS-B
Tue 08:47:40 PM 34.4650 -104.2830 124° Southeast 491 565 37,000  Level FlightAware ADS-B
Tue 08:49:10 PM 34.1547 -103.9425 124° Southeast 491 565 37,000  Level Albuquerque Center
Tue 08:50:11 PM 34.0658 -103.8164 130° Southeast 491 565 37,000  Level Albuquerque Center
Tue 08:51:12 PM 33.9722 -103.6850 131° Southeast 491 565 37,000  Level Albuquerque Center
Tue 08:52:14 PM 33.8939 -103.5725 130° Southeast 497 572 37,000  Level Albuquerque Center
Tue 08:53:15 PM 33.7881 -103.4175 129° Southeast 500 575 37,000  Level Albuquerque Center
Tue 08:54:47 PM 33.6597 -103.2450 132° Southeast 498 573 37,000  Level Fort Worth Center
Tue 08:55:18 PM 33.6086 -103.1653 128° Southeast 497 572 37,000  Level Albuquerque Center
Tue 08:56:19 PM 33.5183 -103.0397 131° Southeast 497 572 37,000  Level Albuquerque Center
Tue 09:01:44 PM 33.0100 -102.3340 131° Southeast 513 590 37,000  Level FlightAware ADS-B
Tue 09:02:24 PM 32.9490 -102.2490 131° Southeast 514 592 37,000  Level FlightAware ADS-B
Tue 09:03:02 PM 32.8890 -102.1680 131° Southeast 514 592 37,000  Level FlightAware ADS-B
Tue 09:03:49 PM 32.8260 -102.0790 130° Southeast 513 590 37,000 67 Level FlightAware ADS-B
Tue 09:04:32 PM 32.7480 -101.9750 132° Southeast 513 590 37,100 69 Climbing FlightAware ADS-B
Tue 09:05:16 PM 32.6790 -101.8810 131° Southeast 507 583 37,100 -71 Level FlightAware ADS-B
Tue 09:05:56 PM 32.6190 -101.7990 131° Southeast 506 582 37,000 -71 Descending FlightAware ADS-B
Tue 09:06:40 PM 32.5510 -101.7070 131° Southeast 505 581 37,000  Level FlightAware ADS-B
Tue 09:07:20 PM 32.4890 -101.6230 131° Southeast 505 581 37,000  Level FlightAware ADS-B
Tue 09:07:58 PM 32.4310 -101.5450 131° Southeast 503 579 37,000  Level FlightAware ADS-B
Tue 09:08:42 PM 32.3590 -101.4580 134° Southeast 505 581 37,000  Level FlightAware ADS-B
Tue 09:09:24 PM 32.2850 -101.3810 139° Southeast 507 583 37,000  Level FlightAware ADS-B
Tue 09:10:08 PM 32.2220 -101.2850 128° Southeast 500 575 37,000  Level FlightAware ADS-B
Tue 09:10:41 PM 32.1820 -101.2120 123° Southeast 500 575 37,000  Level FlightAware ADS-B
Tue 09:11:26 PM 32.1230 -101.1070 124° Southeast 500 575 37,000  Level FlightAware ADS-B
Tue 09:12:02 PM 32.0780 -101.0260 123° Southeast 499 574 37,000  Level FlightAware ADS-B
Tue 09:12:42 PM 32.0280 -100.9350 123° Southeast 501 577 37,000  Level FlightAware ADS-B
Tue 09:13:24 PM 31.9740 -100.8390 124° Southeast 503 579 37,000  Level FlightAware ADS-B
Tue 09:14:04 PM 31.9230 -100.7480 123° Southeast 505 581 37,000  Level FlightAware ADS-B
Tue 09:14:40 PM 31.8760 -100.6640 123° Southeast 506 582 37,000  Level FlightAware ADS-B
Tue 09:15:24 PM 31.8180 -100.5620 124° Southeast 507 583 37,000  Level FlightAware ADS-B
Tue 09:16:04 PM 31.7680 -100.4720 123° Southeast 509 586 37,000 -220 Level FlightAware ADS-B
Tue 09:16:46 PM 31.7120 -100.3730 124° Southeast 511 588 36,700 -628 Descending FlightAware ADS-B
Tue 09:17:30 PM 31.6560 -100.2730 123° Southeast 514 592 36,100 -940 Descending FlightAware ADS-B
Tue 09:18:09 PM 31.6050 -100.1840 124° Southeast 513 590 35,400 -1,143 Descending FlightAware ADS-B
Tue 09:18:54 PM 31.5450 -100.0790 124° Southeast 510 587 34,500 -1,835 Descending FlightAware ADS-B
Tue 09:19:34 PM 31.4920 -99.9860 124° Southeast 512 589 32,800 -2,488 Descending FlightAware ADS-B
Tue 09:20:16 PM 31.4370 -99.8900 124° Southeast 508 585 31,100 -2,233 Descending FlightAware ADS-B
Tue 09:21:00 PM 31.3800 -99.7910 124° Southeast 503 579 29,600 -1,500 Descending FlightAware ADS-B
Tue 09:21:40 PM 31.3270 -99.6990 124° Southeast 506 582 29,000 -429 Descending FlightAware ADS-B
Tue 09:22:24 PM 31.2710 -99.6010 124° Southeast 506 582 29,000 -698 Level FlightAware ADS-B
Tue 09:23:06 PM 31.2210 -99.5020 121° Southeast 496 571 28,000 -1,537 Descending FlightAware ADS-B
Tue 09:23:46 PM 31.1880 -99.4050 112° Southeast 475 547 26,900 -1,643 Descending FlightAware ADS-B
Tue 09:24:30 PM 31.1520 -99.3020 112° Southeast 455 524 25,700 -1,800 Descending FlightAware ADS-B
Tue 09:25:06 PM 31.1250 -99.2220 111° Southeast 446 513 24,500 -1,857 Descending FlightAware ADS-B
Tue 09:25:54 PM 31.0890 -99.1190 112° Southeast 428 493 23,100 -1,714 Descending FlightAware ADS-B
Tue 09:26:30 PM 31.0620 -99.0420 112° Southeast 414 476 22,100 -2,000 Descending FlightAware ADS-B
Tue 09:27:06 PM 31.0360 -98.9670 112° Southeast 410 472 20,700 -1,976 Descending FlightAware ADS-B
Tue 09:27:52 PM 31.0040 -98.8750 112° Southeast 395 455 19,400 -1,857 Descending FlightAware ADS-B
Tue 09:28:30 PM 30.9780 -98.8020 113° Southeast 388 447 18,100 -1,923 Descending FlightAware ADS-B
Tue 09:29:10 PM 30.9520 -98.7260 112° Southeast 379 436 16,900 -1,976 Descending FlightAware ADS-B
Tue 09:29:52 PM 30.9240 -98.6460 112° Southeast 373 429 15,400 -1,902 Descending FlightAware ADS-B
Tue 09:30:32 PM 30.8990 -98.5760 113° Southeast 361 415 14,300 -1,800 Descending FlightAware ADS-B
Tue 09:31:12 PM 30.8720 -98.5000 112° Southeast 356 410 13,000 -1,857 Descending FlightAware ADS-B
Tue 09:31:56 PM 30.8450 -98.4240 112° Southeast 346 398 11,700 -1,841 Descending FlightAware ADS-B
Tue 09:32:40 PM 30.8190 -98.3490 112° Southeast 338 389 10,300 -1,417 Descending FlightAware ADS-B
Tue 09:33:08 PM 30.8020 -98.3020 113° Southeast 339 390 10,000 -346 Descending FlightAware ADS-B
Tue 09:33:32 PM 30.7880 -98.2620 112° Southeast 333 383 10,000  Level FlightAware ADS-B
Tue 09:33:57 PM 30.7740 -98.2230 113° Southeast 322 371 10,000  Level FlightAware ADS-B
Tue 09:34:09 PM 30.7662 -98.2023 114° Southeast 320 368 10,000  Level FlightAware ADS-B
Tue 09:34:26 PM 30.7565 -98.1752 113° Southeast 320 368 10,000  Level FlightAware ADS-B
Tue 09:34:58 PM 30.7387 -98.1251 112° Southeast 319 367 10,000  Level FlightAware ADS-B
Tue 09:35:13 PM 30.7299 -98.1004 113° Southeast 319 367 10,000  Level FlightAware ADS-B
Tue 09:35:24 PM 30.7240 -98.0842 113° Southeast 319 367 10,000 -324 Level FlightAware ADS-B
Tue 09:35:50 PM 30.6998 -98.0487 128° Southeast 316 364 9,800 -529 Descending FlightAware ADS-B
Tue 09:35:58 PM 30.6902 -98.0429 153° Southeast 303 349 9,700 -783 Descending FlightAware ADS-B
Tue 09:36:13 PM 30.6715 -98.0348 160° South 294 338 9,500 -1,286 Descending FlightAware ADS-B
Tue 09:36:40 PM 30.6366 -98.0213 162° South 290 334 8,800 -1,548 Descending FlightAware ADS-B
Tue 09:37:15 PM 30.5921 -98.0047 162° South 288 331 7,900 -1,525 Descending FlightAware ADS-B
Tue 09:37:39 PM 30.5616 -97.9932 162° South 288 331 7,300 -1,571 Descending FlightAware ADS-B
Tue 09:37:57 PM 30.5392 -97.9846 162° South 287 330 6,800 -1,742 Descending FlightAware ADS-B
Tue 09:38:10 PM 30.5230 -97.9784 162° South 288 331 6,400 -1,500 Descending FlightAware ADS-B
Tue 09:38:25 PM 30.5040 -97.9711 162° South 284 327 6,100 -774 Descending FlightAware ADS-B
Tue 09:38:41 PM 30.4843 -97.9635 162° South 286 329 6,000 -194 Descending FlightAware ADS-B
Tue 09:38:56 PM 30.4643 -97.9558 162° South 287 330 6,000  Level FlightAware ADS-B
Tue 09:39:11 PM 30.4463 -97.9489 162° South 286 329 6,000  Level FlightAware ADS-B
Tue 09:39:26 PM 30.4268 -97.9414 162° South 284 327 6,000  Level FlightAware ADS-B
Tue 09:39:42 PM 30.4073 -97.9341 162° South 284 327 6,000  Level FlightAware ADS-B
Tue 09:39:56 PM 30.3894 -97.9274 162° South 283 326 6,000 -414 Level FlightAware ADS-B
Tue 09:40:11 PM 30.3707 -97.9202 162° South 280 322 5,800 -1,161 Descending FlightAware ADS-B
Tue 09:40:27 PM 30.3517 -97.9128 161° South 280 322 5,400 -1,548 Descending FlightAware ADS-B
Tue 09:40:42 PM 30.3328 -97.9053 161° South 282 325 5,000 -1,355 Descending FlightAware ADS-B
Tue 09:40:58 PM 30.3136 -97.8979 162° South 279 321 4,700 -1,355 Descending FlightAware ADS-B
Tue 09:41:13 PM 30.2948 -97.8908 162° South 277 319 4,300 -1,333 Descending FlightAware ADS-B
Tue 09:41:16 PM 30.2907 -97.8892 161° South 277 319 4,300 -750 Level FlightAware ADS-B
Tue 09:41:21 PM 30.2854 -97.8866 157° South 276 318 4,200 -1,500 Descending FlightAware ADS-B
Tue 09:41:24 PM 30.2818 -97.8844 152° Southeast 274 315 4,100 -857 Descending FlightAware ADS-B
Tue 09:41:28 PM 30.2778 -97.8812 145° Southeast 272 313 4,100 -750 Level FlightAware ADS-B
Tue 09:41:32 PM 30.2743 -97.8779 141° Southeast 268 308 4,000 -667 Descending FlightAware ADS-B
Tue 09:41:37 PM 30.2692 -97.8727 139° Southeast 264 304 4,000 -600 Level FlightAware ADS-B
Tue 09:41:52 PM 30.2558 -97.8579 136° Southeast 253 291 3,800 -581 Descending FlightAware ADS-B
Tue 09:42:08 PM 30.2434 -97.8438 136° Southeast 245 282 3,700 -581 Descending FlightAware ADS-B
Tue 09:42:23 PM 30.2310 -97.8299 136° Southeast 237 273 3,500 -1,111 Descending FlightAware ADS-B
Tue 09:42:35 PM 30.2216 -97.8193 136° Southeast 237 273 3,200 -1,111 Descending FlightAware ADS-B
Tue 09:42:50 PM 30.2096 -97.8061 136° Southeast 230 265 3,000 -774 Descending FlightAware ADS-B
Tue 09:43:06 PM 30.1981 -97.7937 137° Southeast 226 260 2,800 -968 Descending FlightAware ADS-B
Tue 09:43:21 PM 30.1862 -97.7813 138° Southeast 226 260 2,500 -800 Descending FlightAware ADS-B
Tue 09:43:36 PM 30.1749 -97.7695 138° Southeast 215 247 2,400 -444 Descending FlightAware ADS-B
Tue 09:43:48 PM 30.1657 -97.7604 139° Southeast 209 241 2,300 -545 Descending FlightAware ADS-B
Tue 09:43:58 PM 30.1584 -97.7536 141° Southeast 202 232 2,200 -273 Descending FlightAware ADS-B
Tue 09:44:10 PM 30.1495 -97.7457 142° Southeast 189 217 2,200  Level FlightAware ADS-B
Tue 09:44:19 PM 30.1437 -97.7409 144° Southeast 176 203 2,200 -300 Level FlightAware ADS-B
Tue 09:44:30 PM 30.1366 -97.7351 145° Southeast 164 189 2,100 -706 Descending FlightAware ADS-B
Tue 09:44:36 PM 30.1329 -97.7321 145° Southeast 158 182 2,000 -600 Descending FlightAware ADS-B
Tue 09:44:40 PM 30.1308 -97.7300 139° Southeast 155 178 2,000  Level FlightAware ADS-B
Tue 09:44:43 PM 30.1294 -97.7280 129° Southeast 148 170 2,000  Level FlightAware ADS-B
Tue 09:44:47 PM 30.1282 -97.7255 119° Southeast 141 162 2,000  Level FlightAware ADS-B
Tue 09:44:51 PM 30.1276 -97.7229 105° East 140 161 2,000 -750 Level FlightAware ADS-B
Tue 09:44:55 PM 30.1275 -97.7200 92° East 140 161 1,900 -462 Descending FlightAware ADS-B
Tue 09:45:04 PM 30.1276 -97.7132 89° East 140 161 1,900 -375 Level FlightAware ADS-B
Tue 09:45:11 PM 30.1279 -97.7087 86° East 140 161 1,800 -1,200 Descending FlightAware ADS-B
Tue 09:45:14 PM 30.1281 -97.7053 86° East 139 160 1,700 -857 Descending FlightAware ADS-B
Tue 09:45:18 PM 30.1284 -97.7028 82° East 137 158 1,700  Level FlightAware ADS-B
Tue 09:45:21 PM 30.1290 -97.7005 73° East 135 155 1,700 -1,000 Level FlightAware ADS-B
Tue 09:45:24 PM 30.1298 -97.6982 68° East 136 157 1,600 -857 Descending FlightAware ADS-B
Tue 09:45:28 PM 30.1307 -97.6962 63° Northeast 137 158 1,600  Level FlightAware ADS-B
Tue 09:45:31 PM 30.1321 -97.6940 54° Northeast 138 159 1,600 -750 Level FlightAware ADS-B
Tue 09:45:36 PM 30.1339 -97.6917 48° Northeast 137 158 1,500 -750 Descending FlightAware ADS-B
Tue 09:45:39 PM 30.1358 -97.6899 39° Northeast 138 159 1,500  Level FlightAware ADS-B
Tue 09:45:43 PM 30.1373 -97.6885 39° Northeast 139 160 1,500 -750 Level FlightAware ADS-B
Tue 09:45:47 PM 30.1396 -97.6869 31° Northeast 139 160 1,400 -1,286 Descending FlightAware ADS-B
Tue 09:45:57 PM 30.1457 -97.6835 26° Northeast 140 161 1,200 -1,059 Descending FlightAware ADS-B
Tue 09:46:04 PM 30.1498 -97.6816 22° Northeast 139 160 1,100 -923 Descending FlightAware ADS-B
Tue 09:46:10 PM 30.1532 -97.6803 18° North 139 160 1,000 -375 Descending FlightAware ADS-B
Tue 09:47:08 PM 30.1872 -97.6686 18° North 141 162 700 -310 Descending Houston Center
Tue 09:49:00 PM 30.1833 -97.6667 210° Southwest  Level FlightAware Approximate

Login

Don't have an account? Register now (free) for customized features, flight alerts, and more!